createdAt,value
2023-04-06T00:01:27.698Z,7.85
2023-04-06T00:03:55.030Z,9.27
2023-04-06T00:06:22.975Z,8.68
2023-04-06T00:08:50.597Z,8.75
2023-04-06T00:11:18.091Z,8.70
2023-04-06T00:13:46.477Z,8.50
2023-04-06T00:16:13.825Z,8.00
2023-04-06T00:18:41.389Z,8.05
2023-04-06T00:21:08.692Z,8.82
2023-04-06T00:23:36.193Z,7.43
2023-04-06T00:26:03.653Z,8.27
2023-04-06T00:28:37.048Z,8.10
2023-04-06T00:31:04.711Z,8.80
2023-04-06T00:33:32.173Z,8.52
2023-04-06T00:35:59.448Z,8.93
2023-04-06T00:38:28.055Z,8.23
2023-04-06T00:40:56.536Z,8.30
2023-04-06T00:43:25.506Z,8.35
2023-04-06T00:45:53.520Z,8.13
2023-04-06T00:48:21.172Z,7.85
2023-04-06T00:50:48.824Z,8.57
2023-04-06T00:53:16.430Z,8.60
2023-04-06T00:55:44.000Z,8.70
2023-04-06T00:58:12.244Z,7.65
2023-04-06T01:00:48.241Z,8.18
2023-04-06T01:03:19.050Z,8.43
2023-04-06T01:05:47.946Z,8.65
2023-04-06T01:08:23.494Z,8.48
2023-04-06T01:10:54.799Z,8.85
2023-04-06T01:13:26.433Z,8.70
2023-04-06T01:16:01.238Z,8.73
2023-04-06T01:18:36.233Z,9.02
2023-04-06T01:21:16.786Z,8.18
2023-04-06T01:24:01.191Z,9.00
2023-04-06T01:26:37.035Z,9.25
2023-04-06T01:29:11.394Z,9.13
2023-04-06T01:31:40.567Z,9.07
2023-04-06T01:34:08.420Z,9.05
2023-04-06T01:36:36.012Z,9.00
2023-04-06T01:39:18.705Z,8.38
2023-04-06T01:41:48.222Z,7.93
2023-04-06T01:44:20.763Z,9.40
2023-04-06T01:47:01.795Z,8.48
2023-04-06T01:49:29.212Z,8.93
2023-04-06T01:51:57.554Z,8.70
2023-04-06T01:54:25.008Z,8.82
2023-04-06T01:57:15.028Z,8.55
2023-04-06T01:59:48.093Z,9.10
2023-04-06T02:02:34.333Z,9.57
2023-04-06T02:05:08.549Z,9.43
2023-04-06T02:07:37.270Z,8.93
2023-04-06T02:10:05.476Z,9.68
2023-04-06T02:12:38.236Z,9.07
2023-04-06T02:15:09.307Z,9.63
2023-04-06T02:17:36.754Z,9.63
2023-04-06T02:20:04.390Z,9.60
2023-04-06T02:22:31.757Z,10.20
2023-04-06T02:25:00.217Z,9.65
2023-04-06T02:27:29.539Z,9.90
2023-04-06T02:29:56.941Z,10.30
2023-04-06T02:32:25.062Z,9.70
2023-04-06T02:34:52.921Z,9.23
2023-04-06T02:37:23.113Z,8.85
2023-04-06T02:39:51.851Z,9.50
2023-04-06T02:42:19.426Z,9.95
2023-04-06T02:44:49.212Z,9.38
2023-04-06T02:47:18.192Z,9.60
2023-04-06T02:52:19.140Z,9.85
2023-04-06T02:54:47.491Z,8.65
2023-04-06T02:57:21.730Z,9.13
2023-04-06T02:59:49.052Z,9.57
2023-04-06T03:02:21.921Z,9.45
2023-04-06T03:04:49.894Z,10.13
2023-04-06T03:07:29.548Z,8.90
2023-04-06T03:09:56.896Z,10.35
2023-04-06T03:12:24.175Z,9.40
2023-04-06T03:15:11.960Z,10.18
2023-04-06T03:17:43.022Z,10.10
2023-04-06T03:20:17.523Z,9.05
2023-04-06T03:22:46.059Z,9.63
2023-04-06T03:25:16.397Z,9.73
2023-04-06T03:27:45.911Z,9.95
2023-04-06T03:30:18.699Z,10.10
2023-04-06T03:32:46.245Z,9.85
2023-04-06T03:35:13.647Z,9.68
2023-04-06T03:37:41.012Z,9.13
2023-04-06T03:40:08.650Z,8.88
2023-04-06T03:42:36.648Z,10.02
2023-04-06T03:45:10.732Z,9.73
2023-04-06T03:47:44.847Z,9.52
2023-04-06T03:50:13.247Z,10.07
2023-04-06T03:52:40.981Z,10.60
2023-04-06T03:55:08.975Z,9.93
2023-04-06T03:57:38.633Z,10.30
2023-04-06T04:00:07.043Z,10.45
2023-04-06T04:02:40.424Z,10.43
2023-04-06T04:05:08.514Z,10.50
2023-04-06T04:07:37.960Z,8.63
2023-04-06T04:10:07.702Z,10.73
2023-04-06T04:12:35.038Z,10.95
2023-04-06T04:15:02.566Z,11.68
2023-04-06T04:17:31.859Z,10.90
2023-04-06T04:20:03.884Z,11.68
2023-04-06T04:22:31.572Z,11.10
2023-04-06T04:25:00.493Z,11.23
2023-04-06T04:27:30.878Z,11.23
2023-04-06T04:29:58.872Z,11.32
2023-04-06T04:32:28.541Z,11.70
2023-04-06T04:34:58.906Z,10.80
2023-04-06T04:37:36.271Z,12.02
2023-04-06T04:40:05.008Z,10.15
2023-04-06T04:42:41.288Z,10.90
2023-04-06T04:45:13.917Z,11.40
2023-04-06T04:47:42.760Z,11.13
2023-04-06T04:50:12.520Z,11.23
2023-04-06T04:52:43.371Z,10.80
2023-04-06T04:55:15.657Z,11.95
2023-04-06T04:57:46.366Z,10.48
2023-04-06T05:00:14.810Z,11.00
2023-04-06T05:02:47.986Z,11.40
2023-04-06T05:05:27.310Z,12.30
2023-04-06T05:07:55.300Z,12.35
2023-04-06T05:10:42.261Z,11.43
2023-04-06T05:13:10.053Z,12.20
2023-04-06T05:15:39.332Z,11.82
2023-04-06T05:18:15.059Z,11.02
2023-04-06T05:20:43.857Z,11.52
2023-04-06T05:23:12.374Z,11.10
2023-04-06T05:25:40.046Z,11.13
2023-04-06T05:28:19.333Z,11.52
2023-04-06T05:30:47.385Z,12.13
2023-04-06T05:33:16.358Z,10.88
2023-04-06T05:36:04.828Z,10.48
2023-04-06T05:38:34.377Z,10.65
2023-04-06T05:41:10.070Z,10.52
2023-04-06T05:43:38.321Z,10.95
2023-04-06T05:46:05.716Z,10.30
2023-04-06T05:48:33.671Z,10.57
2023-04-06T05:51:03.446Z,9.98
2023-04-06T05:53:40.160Z,9.75
2023-04-06T05:56:10.020Z,10.27
2023-04-06T05:58:37.324Z,11.23
2023-04-06T06:01:06.381Z,9.32
2023-04-06T06:03:41.141Z,9.90
2023-04-06T06:06:08.602Z,9.73
2023-04-06T06:08:50.107Z,9.13
2023-04-06T06:11:18.960Z,10.35
2023-04-06T06:13:49.484Z,8.32
2023-04-06T06:16:18.671Z,8.98
2023-04-06T06:18:48.155Z,9.20
2023-04-06T06:21:16.350Z,9.70
2023-04-06T06:23:44.128Z,9.27
2023-04-06T06:26:15.409Z,9.63
2023-04-06T06:28:42.818Z,10.27
2023-04-06T06:31:15.246Z,8.73
2023-04-06T06:33:44.056Z,9.00
2023-04-06T06:36:11.391Z,8.65
2023-04-06T06:38:39.923Z,9.38
2023-04-06T06:41:07.464Z,10.20
2023-04-06T06:43:36.846Z,8.52
2023-04-06T06:46:08.436Z,7.85
2023-04-06T06:48:36.972Z,9.27
2023-04-06T06:51:04.956Z,8.25
2023-04-06T06:53:32.609Z,8.07
2023-04-06T06:55:59.944Z,7.30
2023-04-06T06:58:27.890Z,8.73
2023-04-06T07:00:59.354Z,7.65
2023-04-06T07:03:28.192Z,7.75
2023-04-06T07:05:56.792Z,7.90
2023-04-06T07:08:26.135Z,7.35
2023-04-06T07:10:54.252Z,6.82
2023-04-06T07:13:25.126Z,7.22
2023-04-06T07:15:56.136Z,7.50
2023-04-06T07:18:24.255Z,7.82
2023-04-06T07:20:51.846Z,7.38
2023-04-06T07:23:19.540Z,7.20
2023-04-06T07:25:48.524Z,8.10
2023-04-06T07:28:16.596Z,7.22
2023-04-06T07:30:44.936Z,7.22
2023-04-06T07:33:13.524Z,8.23
2023-04-06T07:35:42.668Z,8.23
2023-04-06T07:38:11.788Z,7.32
2023-04-06T07:40:40.933Z,6.78
2023-04-06T07:43:08.377Z,6.97
2023-04-06T07:45:36.790Z,6.85
2023-04-06T07:48:04.300Z,6.97
2023-04-06T07:50:33.098Z,7.60
2023-04-06T07:53:01.808Z,7.28
2023-04-06T07:55:31.010Z,7.07
2023-04-06T07:57:58.862Z,7.32
2023-04-06T08:00:26.367Z,6.75
2023-04-06T08:02:53.770Z,7.32
2023-04-06T08:05:21.586Z,6.68
2023-04-06T08:07:49.138Z,7.85
2023-04-06T08:10:16.644Z,6.88
2023-04-06T08:12:43.915Z,7.13
2023-04-06T08:15:11.656Z,6.55
2023-04-06T08:17:38.950Z,7.20
2023-04-06T08:20:06.857Z,7.03
2023-04-06T08:22:34.454Z,7.53
2023-04-06T08:25:01.899Z,6.78
2023-04-06T08:27:29.436Z,6.72
2023-04-06T08:29:56.788Z,7.18
2023-04-06T08:32:24.264Z,7.00
2023-04-06T08:34:54.931Z,7.22
2023-04-06T08:37:23.336Z,7.40
2023-04-06T08:39:50.662Z,7.60
2023-04-06T08:42:21.637Z,6.90
2023-04-06T08:44:50.549Z,6.63
2023-04-06T08:47:17.851Z,6.40
2023-04-06T08:49:46.753Z,6.60
2023-04-06T08:52:15.846Z,5.82
2023-04-06T08:54:46.148Z,6.60
2023-04-06T08:57:14.273Z,7.03
2023-04-06T08:59:42.223Z,6.22
2023-04-06T09:02:16.775Z,6.30
2023-04-06T09:04:46.930Z,7.45
2023-04-06T09:07:16.853Z,6.97
2023-04-06T09:09:48.719Z,7.20
2023-04-06T09:12:30.113Z,6.65
2023-04-06T09:14:58.580Z,6.13
2023-04-06T09:17:28.142Z,6.30
2023-04-06T09:19:56.098Z,6.68
2023-04-06T09:22:24.140Z,6.80
2023-04-06T09:24:54.319Z,6.57
2023-04-06T09:27:35.840Z,7.22
2023-04-06T09:30:22.364Z,6.28
2023-04-06T09:32:51.827Z,7.05
2023-04-06T09:35:21.217Z,6.72
2023-04-06T09:37:49.840Z,6.78
2023-04-06T09:40:18.857Z,7.05
2023-04-06T09:42:47.853Z,7.45
2023-04-06T09:45:17.099Z,6.90
2023-04-06T09:47:46.512Z,6.63
2023-04-06T09:50:15.792Z,6.85
2023-04-06T09:52:45.963Z,7.18
2023-04-06T09:55:17.833Z,6.97
2023-04-06T09:58:03.003Z,6.80
2023-04-06T10:00:33.301Z,6.88
2023-04-06T10:03:12.754Z,6.20
2023-04-06T10:06:03.123Z,6.85
2023-04-06T10:08:33.626Z,6.53
2023-04-06T10:11:01.875Z,7.40
2023-04-06T10:13:29.828Z,7.13
2023-04-06T10:16:01.485Z,7.85
2023-04-06T10:18:29.092Z,7.13
2023-04-06T10:21:10.520Z,7.68
2023-04-06T10:23:53.245Z,7.13
2023-04-06T10:26:23.626Z,7.40
2023-04-06T10:28:52.196Z,8.05
2023-04-06T10:31:28.538Z,7.25
2023-04-06T10:34:01.256Z,6.95
2023-04-06T10:36:34.737Z,7.47
2023-04-06T10:39:04.957Z,7.72
2023-04-06T10:41:42.009Z,7.30
2023-04-06T10:44:17.907Z,8.20
2023-04-06T10:47:02.997Z,7.47
2023-04-06T10:49:31.667Z,8.80
2023-04-06T10:51:59.472Z,9.40
2023-04-06T10:54:29.357Z,8.48
2023-04-06T10:56:57.618Z,9.35
2023-04-06T10:59:26.392Z,8.20
2023-04-06T11:01:56.100Z,10.20
2023-04-06T11:04:24.579Z,9.73
2023-04-06T11:06:52.087Z,10.02
2023-04-06T11:09:32.584Z,9.55
2023-04-06T11:12:00.062Z,9.88
2023-04-06T11:14:27.902Z,10.77
2023-04-06T11:16:56.346Z,10.48
2023-04-06T11:19:24.210Z,10.70
2023-04-06T11:21:51.647Z,11.55
2023-04-06T11:24:20.473Z,10.70
2023-04-06T11:26:57.001Z,11.95
2023-04-06T11:29:32.706Z,10.93
2023-04-06T11:32:02.170Z,10.82
2023-04-06T11:34:31.744Z,11.35
2023-04-06T11:37:07.636Z,12.07
2023-04-06T11:39:53.283Z,10.77
2023-04-06T11:42:24.747Z,11.68
2023-04-06T11:44:54.816Z,11.93
2023-04-06T11:47:31.826Z,12.93
2023-04-06T11:50:10.744Z,13.73
2023-04-06T11:52:39.557Z,13.63
2023-04-06T11:55:16.087Z,11.75
2023-04-06T11:57:45.327Z,12.35
2023-04-06T12:00:13.373Z,13.50
2023-04-06T12:02:41.364Z,13.18
2023-04-06T12:05:09.712Z,12.63
2023-04-06T12:07:37.374Z,12.77
2023-04-06T12:10:05.310Z,13.55
2023-04-06T12:12:33.032Z,13.95
2023-04-06T12:15:01.057Z,13.27
2023-04-06T12:17:28.513Z,13.30
2023-04-06T12:20:01.808Z,13.40
2023-04-06T12:22:32.349Z,14.32
2023-04-06T12:25:00.243Z,14.35
2023-04-06T12:27:28.008Z,14.02
2023-04-06T12:29:56.643Z,13.95
2023-04-06T12:32:30.409Z,15.00
2023-04-06T12:34:57.757Z,15.95
2023-04-06T12:37:25.980Z,15.32
2023-04-06T12:39:53.773Z,14.52
2023-04-06T12:42:22.088Z,15.20
2023-04-06T12:44:49.672Z,15.63
2023-04-06T12:47:17.304Z,15.25
2023-04-06T12:49:44.901Z,15.82
2023-04-06T12:52:12.278Z,15.57
2023-04-06T12:54:39.587Z,16.25
2023-04-06T12:57:06.930Z,17.75
2023-04-06T12:59:36.905Z,15.85
2023-04-06T13:02:06.200Z,17.95
2023-04-06T13:04:34.049Z,15.35
2023-04-06T13:07:01.453Z,16.40
2023-04-06T13:09:29.005Z,16.63
2023-04-06T13:11:56.819Z,15.80
2023-04-06T13:14:24.157Z,15.88
2023-04-06T13:16:52.313Z,16.42
2023-04-06T13:19:19.760Z,15.52
2023-04-06T13:21:47.137Z,16.48
2023-04-06T13:24:16.590Z,16.60
2023-04-06T13:26:45.214Z,16.00
2023-04-06T13:29:12.553Z,16.98
2023-04-06T13:31:45.280Z,16.92
2023-04-06T13:34:12.849Z,16.60
2023-04-06T13:36:43.215Z,16.80
2023-04-06T13:39:10.829Z,16.38
2023-04-06T13:41:41.250Z,16.58
2023-04-06T13:44:08.643Z,15.77
2023-04-06T13:46:36.069Z,17.50
2023-04-06T13:49:03.542Z,16.38
2023-04-06T13:51:31.851Z,16.08
2023-04-06T13:53:59.288Z,17.05
2023-04-06T13:56:27.608Z,16.98
2023-04-06T13:58:56.867Z,16.23
2023-04-06T14:01:25.046Z,17.60
2023-04-06T14:03:52.650Z,17.15
2023-04-06T14:06:30.964Z,16.80
2023-04-06T14:08:59.714Z,16.90
2023-04-06T14:11:28.038Z,18.52
2023-04-06T14:13:57.966Z,17.40
2023-04-06T14:16:26.008Z,17.80
2023-04-06T14:18:53.354Z,18.40
2023-04-06T14:21:21.136Z,17.60
2023-04-06T14:23:49.082Z,17.70
2023-04-06T14:26:16.420Z,17.10
2023-04-06T14:28:43.985Z,17.55
2023-04-06T14:31:14.578Z,16.77
2023-04-06T14:33:43.010Z,17.50
2023-04-06T14:36:11.366Z,17.55
2023-04-06T14:38:41.252Z,17.60
2023-04-06T14:41:11.652Z,17.15
2023-04-06T14:43:39.827Z,18.38
2023-04-06T14:46:09.411Z,15.70
2023-04-06T14:48:37.836Z,19.00
2023-04-06T14:51:05.106Z,17.25
2023-04-06T14:53:32.994Z,16.77
2023-04-06T14:56:00.724Z,18.58
2023-04-06T14:58:28.022Z,18.02
2023-04-06T15:01:01.630Z,17.23
2023-04-06T15:03:30.956Z,17.73
2023-04-06T15:05:59.398Z,16.48
2023-04-06T15:08:26.756Z,18.35
2023-04-06T15:10:55.775Z,18.23
2023-04-06T15:13:23.363Z,17.98
2023-04-06T15:15:52.291Z,16.75
2023-04-06T15:18:20.014Z,16.83
2023-04-06T15:20:47.312Z,16.20
2023-04-06T15:23:14.799Z,16.95
2023-04-06T15:25:42.470Z,17.08
2023-04-06T15:28:09.815Z,15.65
2023-04-06T15:30:37.587Z,17.73
2023-04-06T15:33:06.519Z,16.42
2023-04-06T15:35:35.378Z,17.77
2023-04-06T15:38:03.681Z,17.88
2023-04-06T15:40:31.405Z,16.17
2023-04-06T15:42:59.541Z,17.33
2023-04-06T15:45:27.414Z,16.38
2023-04-06T15:47:54.758Z,17.58
2023-04-06T15:50:22.197Z,15.00
2023-04-06T15:52:49.517Z,14.43
2023-04-06T15:55:18.019Z,13.90
2023-04-06T15:57:45.400Z,14.52
2023-04-06T16:00:14.357Z,14.52
2023-04-06T16:02:41.742Z,14.43
2023-04-06T16:05:09.529Z,15.52
2023-04-06T16:07:36.792Z,14.45
2023-04-06T16:10:06.318Z,15.40
2023-04-06T16:12:36.507Z,14.70
2023-04-06T16:15:04.114Z,14.73
2023-04-06T16:17:32.095Z,13.55
2023-04-06T16:19:59.379Z,14.57
2023-04-06T16:22:28.687Z,13.57
2023-04-06T16:24:56.073Z,14.10
2023-04-06T16:27:24.005Z,14.10
2023-04-06T16:29:51.729Z,13.73
2023-04-06T16:32:19.050Z,13.25
2023-04-06T16:34:47.422Z,14.75
2023-04-06T16:37:14.853Z,13.75
2023-04-06T16:39:42.211Z,13.60
2023-04-06T16:42:09.653Z,15.05
2023-04-06T16:44:36.978Z,14.77
2023-04-06T16:47:04.732Z,14.07
2023-04-06T16:49:32.206Z,13.98
2023-04-06T16:52:02.876Z,13.68
2023-04-06T16:54:30.192Z,13.98
2023-04-06T16:56:57.838Z,12.57
2023-04-06T16:59:27.694Z,13.40
2023-04-06T17:01:55.451Z,13.73
2023-04-06T17:04:24.223Z,12.10
2023-04-06T17:06:52.245Z,12.05
2023-04-06T17:09:19.494Z,12.20
2023-04-06T17:11:47.244Z,11.90
2023-04-06T17:14:14.592Z,11.55
2023-04-06T17:16:41.968Z,11.63
2023-04-06T17:19:09.247Z,11.15
2023-04-06T17:21:36.703Z,11.70
2023-04-06T17:24:04.573Z,12.40
2023-04-06T17:26:31.827Z,12.18
2023-04-06T17:28:59.059Z,11.68
2023-04-06T17:31:26.466Z,12.60
2023-04-06T17:33:54.227Z,13.70
2023-04-06T17:36:22.022Z,13.70
2023-04-06T17:38:49.521Z,14.15
2023-04-06T17:41:16.832Z,14.32
2023-04-06T17:43:44.229Z,14.40
2023-04-06T17:46:11.711Z,15.13
2023-04-06T17:48:39.513Z,15.18
2023-04-06T17:51:06.851Z,14.48
2023-04-06T17:53:37.132Z,14.25
2023-04-06T17:56:05.144Z,14.77
2023-04-06T17:58:32.926Z,14.77
2023-04-06T18:01:06.966Z,15.55
2023-04-06T18:03:34.974Z,15.32
2023-04-06T18:06:16.170Z,14.48
2023-04-06T18:08:43.769Z,14.40
2023-04-06T18:11:18.259Z,14.70
2023-04-06T18:13:46.269Z,14.85
2023-04-06T18:16:14.634Z,15.50
2023-04-06T18:18:41.971Z,14.70
2023-04-06T18:21:09.377Z,14.32
2023-04-06T18:23:37.774Z,14.32
2023-04-06T18:26:06.612Z,14.25
2023-04-06T18:28:34.228Z,14.30
2023-04-06T18:31:02.397Z,14.77
2023-04-06T18:33:30.291Z,15.52
2023-04-06T18:35:57.657Z,14.00
2023-04-06T18:38:24.895Z,15.30
2023-04-06T18:40:52.430Z,16.00
2023-04-06T18:43:19.775Z,15.05
2023-04-06T18:45:47.709Z,17.00
2023-04-06T18:48:16.239Z,16.23
2023-04-06T18:50:54.540Z,16.30
2023-04-06T18:53:21.880Z,17.30
2023-04-06T18:55:50.794Z,16.95
2023-04-06T18:58:18.034Z,14.85
2023-04-06T19:00:45.461Z,17.52
2023-04-06T19:03:12.999Z,17.17
2023-04-06T19:05:41.917Z,16.92
2023-04-06T19:08:09.630Z,17.02
2023-04-06T19:10:37.637Z,17.23
2023-04-06T19:13:05.566Z,18.42
2023-04-06T19:15:33.579Z,19.00
2023-04-06T19:18:00.823Z,19.02
2023-04-06T19:20:28.107Z,19.77
2023-04-06T19:25:22.580Z,19.75
2023-04-06T19:27:49.885Z,17.30
2023-04-06T19:30:17.205Z,19.88
2023-04-06T19:32:44.754Z,19.20
2023-04-06T19:35:12.205Z,18.73
2023-04-06T19:37:39.810Z,19.70
2023-04-06T19:40:10.851Z,20.48
2023-04-06T19:42:38.997Z,19.83
2023-04-06T19:45:06.670Z,19.75
2023-04-06T19:47:35.497Z,20.20
2023-04-06T19:50:04.541Z,20.13
2023-04-06T19:52:33.228Z,20.52
2023-04-06T19:55:00.847Z,22.08
2023-04-06T19:57:28.244Z,21.05
2023-04-06T19:59:56.432Z,21.00
2023-04-06T20:02:23.969Z,22.42
2023-04-06T20:04:51.493Z,21.02
2023-04-06T20:07:19.970Z,21.80
2023-04-06T20:09:47.246Z,20.35
2023-04-06T20:12:14.528Z,21.92
2023-04-06T20:14:41.933Z,23.45
2023-04-06T20:17:11.234Z,22.83
2023-04-06T20:19:38.736Z,21.38
2023-04-06T20:22:06.052Z,21.98
2023-04-06T20:24:33.307Z,23.27
2023-04-06T20:27:00.598Z,23.45
2023-04-06T20:29:28.026Z,23.60
2023-04-06T20:31:55.640Z,25.40
2023-04-06T20:34:26.299Z,24.75
2023-04-06T20:36:53.936Z,25.67
2023-04-06T20:39:21.872Z,24.92
2023-04-06T20:41:49.098Z,25.63
2023-04-06T20:44:18.994Z,25.08
2023-04-06T20:46:49.184Z,25.40
2023-04-06T20:49:17.496Z,25.77
2023-04-06T20:51:45.919Z,23.27
2023-04-06T20:54:13.178Z,25.13
2023-04-06T20:56:40.582Z,24.13
2023-04-06T20:59:07.941Z,25.45
2023-04-06T21:01:35.427Z,24.63
2023-04-06T21:04:05.977Z,22.98
2023-04-06T21:06:33.795Z,23.38
2023-04-06T21:09:01.695Z,22.50
2023-04-06T21:11:29.024Z,24.48
2023-04-06T21:13:57.159Z,22.95
2023-04-06T21:16:24.476Z,21.55
2023-04-06T21:18:51.888Z,22.08
2023-04-06T21:21:19.706Z,21.15
2023-04-06T21:23:47.297Z,19.90
2023-04-06T21:26:14.684Z,20.48
2023-04-06T21:28:41.928Z,20.38
2023-04-06T21:31:09.346Z,19.85
2023-04-06T21:33:36.699Z,21.50
2023-04-06T21:36:08.279Z,21.42
2023-04-06T21:38:35.724Z,20.70
2023-04-06T21:41:03.303Z,20.42
2023-04-06T21:43:30.703Z,19.33
2023-04-06T21:45:58.157Z,19.98
2023-04-06T21:48:25.438Z,18.40
2023-04-06T21:50:52.698Z,17.08
2023-04-06T21:53:20.160Z,17.95
2023-04-06T21:55:48.106Z,18.25
2023-04-06T21:58:15.982Z,17.27
2023-04-06T22:00:43.629Z,15.82
2023-04-06T22:03:11.322Z,15.25
2023-04-06T22:05:38.794Z,14.30
2023-04-06T22:08:06.257Z,14.65
2023-04-06T22:10:33.637Z,14.40
2023-04-06T22:13:00.957Z,15.32
2023-04-06T22:15:28.477Z,15.85
2023-04-06T22:17:55.802Z,16.88
2023-04-06T22:20:23.204Z,16.15
2023-04-06T22:22:50.573Z,17.00
2023-04-06T22:25:18.045Z,17.80
2023-04-06T22:27:45.668Z,19.27
2023-04-06T22:30:13.296Z,19.33
2023-04-06T22:32:40.920Z,20.85
2023-04-06T22:35:08.891Z,20.30
2023-04-06T22:37:36.134Z,19.90
2023-04-06T22:40:03.605Z,17.58
2023-04-06T22:42:31.110Z,17.33
2023-04-06T22:44:58.488Z,16.58
2023-04-06T22:47:26.028Z,16.13
2023-04-06T22:49:53.450Z,17.13
2023-04-06T22:52:20.834Z,17.98
2023-04-06T22:54:48.233Z,17.20
2023-04-06T22:57:16.060Z,17.60
2023-04-06T22:59:43.495Z,16.85
2023-04-06T23:02:11.214Z,16.45
2023-04-06T23:04:38.583Z,16.38
2023-04-06T23:07:06.075Z,15.60
2023-04-06T23:09:33.487Z,15.15
2023-04-06T23:12:01.112Z,14.77
2023-04-06T23:14:28.357Z,15.23
2023-04-06T23:16:56.037Z,15.07
2023-04-06T23:19:23.386Z,14.68
2023-04-06T23:21:51.005Z,15.65
2023-04-06T23:24:18.224Z,16.55
2023-04-06T23:26:45.798Z,15.93
2023-04-06T23:29:13.029Z,17.27
2023-04-06T23:31:40.340Z,16.02
2023-04-06T23:34:10.700Z,16.65
2023-04-06T23:36:38.125Z,15.65
2023-04-06T23:39:05.844Z,16.88
2023-04-06T23:41:33.294Z,14.82
2023-04-06T23:44:00.755Z,17.77
2023-04-06T23:46:28.251Z,16.45
2023-04-06T23:48:55.560Z,17.95
2023-04-06T23:51:22.888Z,15.80
2023-04-06T23:53:50.081Z,18.40
2023-04-06T23:56:17.348Z,17.70
2023-04-06T23:58:44.629Z,16.27
